createdAt,value
2017-08-14T00:00:05.102Z,80.9
2017-08-14T00:01:06.499Z,81.3
2017-08-14T00:02:07.898Z,80.8
2017-08-14T00:03:09.298Z,81.2
2017-08-14T00:04:10.700Z,81.2
2017-08-14T00:05:12.099Z,81.0
2017-08-14T00:06:13.500Z,81.0
2017-08-14T00:07:14.891Z,81.0
2017-08-14T00:08:16.286Z,81.3
2017-08-14T00:09:17.695Z,82.0
2017-08-14T00:10:19.093Z,82.1
2017-08-14T00:11:20.493Z,81.7
2017-08-14T00:12:21.891Z,82.0
2017-08-14T00:13:23.292Z,81.8
2017-08-14T00:14:24.738Z,82.2
2017-08-14T00:15:26.138Z,81.6
2017-08-14T00:16:27.536Z,82.1
2017-08-14T00:17:28.932Z,82.1
2017-08-14T00:18:30.329Z,82.1
2017-08-14T00:19:31.735Z,81.5
2017-08-14T00:20:33.130Z,81.8
2017-08-14T00:21:34.527Z,82.7
2017-08-14T00:22:35.921Z,82.5
2017-08-14T00:23:37.318Z,82.5
2017-08-14T00:24:38.717Z,81.8
2017-08-14T00:25:40.115Z,82.1
2017-08-14T00:26:41.513Z,82.1
2017-08-14T00:27:42.911Z,82.3
2017-08-14T00:28:44.309Z,82.1
2017-08-14T00:29:45.707Z,82.3
2017-08-14T00:30:47.101Z,81.8
2017-08-14T00:31:48.499Z,82.3
2017-08-14T00:32:49.893Z,82.1
2017-08-14T00:33:51.292Z,82.0
2017-08-14T00:34:52.692Z,81.9
2017-08-14T00:35:54.091Z,82.1
2017-08-14T00:36:55.484Z,82.4
2017-08-14T00:37:56.881Z,82.0
2017-08-14T00:38:58.285Z,82.4
2017-08-14T00:39:59.683Z,82.0
2017-08-14T00:41:01.079Z,82.1
2017-08-14T00:42:02.490Z,82.1
2017-08-14T00:43:03.887Z,82.1
2017-08-14T00:44:05.286Z,82.5
2017-08-14T00:45:06.684Z,82.5
2017-08-14T00:46:08.076Z,82.5
2017-08-14T00:47:09.474Z,83.2
2017-08-14T00:48:10.878Z,83.3
2017-08-14T00:49:12.276Z,83.6
2017-08-14T00:50:13.672Z,82.9
2017-08-14T00:51:15.067Z,82.8
2017-08-14T00:52:16.464Z,82.9
2017-08-14T00:53:17.858Z,83.6
2017-08-14T00:54:19.260Z,83.2
2017-08-14T00:55:20.656Z,83.1
2017-08-14T00:56:22.054Z,83.2
2017-08-14T00:57:23.448Z,82.9
2017-08-14T00:58:24.843Z,83.2
2017-08-14T00:59:26.244Z,82.8
2017-08-14T01:00:27.642Z,83.2
2017-08-14T01:01:29.047Z,83.2
2017-08-14T01:02:30.447Z,82.9
2017-08-14T01:03:31.845Z,82.9
2017-08-14T01:04:33.244Z,83.2
2017-08-14T01:05:34.639Z,82.8
2017-08-14T01:06:36.032Z,83.2
2017-08-14T01:07:37.430Z,83.7
2017-08-14T01:08:38.828Z,83.8
2017-08-14T01:09:40.229Z,83.8
2017-08-14T01:10:41.631Z,83.8
2017-08-14T01:11:43.031Z,83.5
2017-08-14T01:12:44.421Z,83.8
2017-08-14T01:13:45.821Z,83.8
2017-08-14T01:14:47.217Z,84.8
2017-08-14T01:15:48.614Z,84.4
2017-08-14T01:16:50.011Z,84.3
2017-08-14T01:17:51.411Z,84.4
2017-08-14T01:18:52.811Z,84.3
2017-08-14T01:19:54.208Z,84.4
2017-08-14T01:20:55.603Z,84.8
2017-08-14T01:21:57.000Z,84.0
2017-08-14T01:22:58.402Z,84.7
2017-08-14T01:23:59.804Z,84.4
2017-08-14T01:25:01.199Z,84.7
2017-08-14T01:26:02.596Z,84.4
2017-08-14T01:27:03.990Z,84.0
2017-08-14T01:28:05.383Z,84.3
2017-08-14T01:29:06.782Z,84.3
2017-08-14T01:30:08.180Z,84.1
2017-08-14T01:31:09.581Z,84.3
2017-08-14T01:32:10.977Z,84.3
2017-08-14T01:33:12.370Z,84.3
2017-08-14T01:34:13.766Z,84.7
2017-08-14T01:35:15.167Z,84.6
2017-08-14T01:36:16.565Z,84.1
2017-08-14T01:37:17.964Z,83.6
2017-08-14T01:38:19.369Z,84.4
2017-08-14T01:39:20.769Z,84.4
2017-08-14T01:40:22.164Z,84.6
2017-08-14T01:41:23.560Z,84.7
2017-08-14T01:42:24.957Z,85.1
2017-08-14T01:43:26.353Z,84.6
2017-08-14T01:44:27.753Z,84.9
2017-08-14T01:45:29.152Z,84.6
2017-08-14T01:46:30.552Z,84.6
2017-08-14T01:47:31.944Z,84.6
2017-08-14T01:48:33.341Z,84.6
2017-08-14T01:49:34.742Z,84.8
2017-08-14T01:50:36.141Z,84.4
2017-08-14T01:51:37.534Z,85.1
2017-08-14T01:52:38.932Z,84.8
2017-08-14T01:53:40.335Z,84.9
2017-08-14T01:54:41.731Z,84.9
2017-08-14T01:55:43.128Z,84.9
2017-08-14T01:56:44.524Z,85.6
2017-08-14T01:57:45.921Z,85.4
2017-08-14T01:58:47.318Z,85.7
2017-08-14T01:59:48.720Z,85.2
2017-08-14T02:00:50.116Z,85.2
2017-08-14T02:01:51.514Z,85.5
2017-08-14T02:02:52.906Z,85.4
2017-08-14T02:03:54.311Z,85.8
2017-08-14T02:04:55.711Z,85.7
2017-08-14T02:05:57.110Z,85.8
2017-08-14T02:06:58.509Z,85.4
2017-08-14T02:07:59.906Z,85.5
2017-08-14T02:09:01.305Z,85.5
2017-08-14T02:10:02.702Z,86.0
2017-08-14T02:11:04.097Z,86.2
2017-08-14T02:12:05.494Z,86.2
2017-08-14T02:13:06.892Z,86.2
2017-08-14T02:14:08.294Z,86.1
2017-08-14T02:15:09.696Z,85.7
2017-08-14T02:16:11.090Z,86.4
2017-08-14T02:17:12.486Z,85.9
2017-08-14T02:18:13.884Z,86.2
2017-08-14T02:19:15.283Z,86.2
2017-08-14T02:20:16.679Z,86.2
2017-08-14T02:21:18.077Z,85.9
2017-08-14T02:22:19.478Z,85.9
2017-08-14T02:23:20.872Z,85.9
2017-08-14T02:24:22.272Z,86.1
2017-08-14T02:25:23.670Z,86.1
2017-08-14T02:26:25.072Z,86.1
2017-08-14T02:27:26.469Z,86.4
2017-08-14T02:28:27.871Z,86.6
2017-08-14T02:29:29.275Z,86.3
2017-08-14T02:30:30.670Z,86.1
2017-08-14T02:31:32.065Z,86.2
2017-08-14T02:32:33.460Z,86.3
2017-08-14T02:33:34.859Z,86.3
2017-08-14T02:34:36.258Z,86.4
2017-08-14T02:35:37.653Z,86.6
2017-08-14T02:36:39.067Z,86.7
2017-08-14T02:37:40.503Z,87.1
2017-08-14T02:38:41.907Z,87.0
2017-08-14T02:39:43.302Z,87.2
2017-08-14T02:40:44.702Z,86.9
2017-08-14T02:41:46.104Z,86.8
2017-08-14T02:42:47.503Z,86.7
2017-08-14T02:43:48.903Z,86.9
2017-08-14T02:44:50.300Z,86.9
2017-08-14T02:45:51.698Z,87.1
2017-08-14T02:46:53.094Z,86.8
2017-08-14T02:47:54.492Z,86.5
2017-08-14T02:48:55.892Z,87.1
2017-08-14T02:49:57.290Z,87.1
2017-08-14T02:50:58.694Z,87.0
2017-08-14T02:52:00.085Z,86.9
2017-08-14T02:53:01.478Z,87.1
2017-08-14T02:54:02.876Z,87.1
2017-08-14T02:55:04.273Z,87.0
2017-08-14T02:56:05.697Z,86.9
2017-08-14T02:57:07.095Z,86.9
2017-08-14T02:58:08.496Z,86.3
2017-08-14T02:59:09.889Z,86.7
2017-08-14T03:00:11.286Z,86.2
2017-08-14T03:01:12.683Z,86.3
2017-08-14T03:02:14.076Z,86.5
2017-08-14T03:03:15.478Z,87.2
2017-08-14T03:04:16.884Z,86.9
2017-08-14T03:05:18.279Z,86.5
2017-08-14T03:06:19.677Z,86.3
2017-08-14T03:07:21.073Z,87.1
2017-08-14T03:08:22.468Z,86.7
2017-08-14T03:09:23.866Z,86.9
2017-08-14T03:10:25.263Z,87.1
2017-08-14T03:11:26.661Z,86.3
2017-08-14T03:12:28.060Z,86.3
2017-08-14T03:13:29.465Z,86.4
2017-08-14T03:14:30.858Z,86.4
2017-08-14T03:15:32.254Z,86.4
2017-08-14T03:16:33.652Z,86.1
2017-08-14T03:17:35.051Z,86.3
2017-08-14T03:18:36.452Z,86.2
2017-08-14T03:19:37.847Z,86.1
2017-08-14T03:20:39.245Z,85.9
2017-08-14T03:21:40.639Z,86.1
2017-08-14T03:22:42.036Z,85.9
2017-08-14T03:23:43.434Z,86.9
2017-08-14T03:24:44.835Z,86.3
2017-08-14T03:25:46.235Z,86.3
2017-08-14T03:26:47.633Z,85.9
2017-08-14T03:27:49.027Z,85.4
2017-08-14T03:28:50.422Z,86.1
2017-08-14T03:29:51.818Z,85.7
2017-08-14T03:30:53.214Z,85.8
2017-08-14T03:31:54.610Z,85.9
2017-08-14T03:32:56.009Z,85.8
2017-08-14T03:33:57.411Z,86.2
2017-08-14T03:34:58.810Z,85.7
2017-08-14T03:36:00.205Z,86.2
2017-08-14T03:37:01.605Z,86.7
2017-08-14T03:38:03.003Z,86.7
2017-08-14T03:39:04.401Z,86.5
2017-08-14T03:40:05.802Z,86.3
2017-08-14T03:41:07.200Z,86.7
2017-08-14T03:42:08.605Z,86.3
2017-08-14T03:43:09.992Z,86.3
2017-08-14T03:44:11.393Z,86.3
2017-08-14T03:45:12.791Z,86.7
2017-08-14T03:46:14.188Z,86.1
2017-08-14T03:47:15.586Z,86.1
2017-08-14T03:48:16.985Z,86.2
2017-08-14T03:49:18.389Z,86.2
2017-08-14T03:50:19.783Z,86.2
2017-08-14T03:51:21.177Z,86.4
2017-08-14T03:52:22.574Z,86.7
2017-08-14T03:53:23.972Z,86.5
2017-08-14T03:54:25.370Z,86.5
2017-08-14T03:55:26.766Z,86.2
2017-08-14T03:56:28.171Z,86.9
2017-08-14T03:57:29.565Z,87.0
2017-08-14T03:58:30.965Z,86.3
2017-08-14T03:59:32.363Z,86.5
2017-08-14T04:00:33.760Z,86.3
2017-08-14T04:01:35.157Z,86.9
2017-08-14T04:02:36.552Z,86.8
2017-08-14T04:03:37.950Z,86.9
2017-08-14T04:04:39.350Z,86.4
2017-08-14T04:05:40.749Z,86.6
2017-08-14T04:06:42.148Z,86.3
2017-08-14T04:07:43.547Z,86.4
2017-08-14T04:08:44.951Z,86.5
2017-08-14T04:09:46.351Z,86.3
2017-08-14T04:10:47.750Z,86.2
2017-08-14T04:11:49.149Z,87.0
2017-08-14T04:12:50.543Z,87.0
2017-08-14T04:13:51.944Z,86.8
2017-08-14T04:14:53.344Z,87.0
2017-08-14T04:15:54.748Z,86.6
2017-08-14T04:16:56.146Z,86.8
2017-08-14T04:17:58.085Z,86.9
2017-08-14T04:18:59.489Z,86.6
2017-08-14T04:20:00.893Z,86.7
2017-08-14T04:21:02.289Z,86.9
2017-08-14T04:22:03.685Z,86.1
2017-08-14T04:23:05.083Z,86.9
2017-08-14T04:24:06.486Z,86.9
2017-08-14T04:25:07.904Z,87.0
2017-08-14T04:26:09.280Z,87.1
2017-08-14T04:27:10.680Z,86.9
2017-08-14T04:28:12.077Z,86.4
2017-08-14T04:29:13.479Z,86.2
2017-08-14T04:30:14.879Z,86.2
2017-08-14T04:31:16.276Z,86.4
2017-08-14T04:32:17.710Z,86.8
2017-08-14T04:33:19.119Z,87.0
2017-08-14T04:34:20.521Z,87.0
2017-08-14T04:35:21.917Z,87.1
2017-08-14T04:36:23.318Z,87.4
2017-08-14T04:37:24.719Z,87.3
2017-08-14T04:38:26.120Z,87.2
2017-08-14T04:39:27.522Z,87.8
2017-08-14T04:40:28.921Z,87.2
2017-08-14T04:41:30.324Z,87.2
2017-08-14T04:42:31.719Z,87.8
2017-08-14T04:43:33.122Z,87.4
2017-08-14T04:44:34.526Z,87.5
2017-08-14T04:45:35.924Z,87.5
2017-08-14T04:46:37.320Z,87.8
2017-08-14T04:47:38.719Z,87.3
2017-08-14T04:48:40.118Z,87.7
2017-08-14T04:49:41.520Z,88.1
2017-08-14T04:50:42.919Z,88.0
2017-08-14T04:51:44.322Z,88.0
2017-08-14T04:52:45.726Z,88.1
2017-08-14T04:53:47.126Z,87.7
2017-08-14T04:54:48.526Z,87.5
2017-08-14T04:55:49.927Z,87.6
2017-08-14T04:56:51.328Z,87.5
2017-08-14T04:57:52.727Z,87.3
2017-08-14T04:58:54.139Z,87.4
2017-08-14T04:59:55.536Z,87.9
2017-08-14T05:00:56.934Z,87.9
2017-08-14T05:01:58.361Z,87.6
2017-08-14T05:02:59.772Z,87.0
2017-08-14T05:04:01.174Z,87.1
2017-08-14T05:05:02.575Z,87.3
2017-08-14T05:06:03.975Z,87.0
2017-08-14T05:07:05.380Z,86.8
2017-08-14T05:08:06.777Z,86.3
2017-08-14T05:09:08.180Z,87.2
2017-08-14T05:10:09.577Z,86.4
2017-08-14T05:11:10.978Z,85.8
2017-08-14T05:12:12.382Z,85.6
2017-08-14T05:13:13.786Z,86.0
2017-08-14T05:14:15.191Z,86.0
2017-08-14T05:15:16.594Z,86.2
2017-08-14T05:16:17.991Z,86.1
2017-08-14T05:17:19.390Z,86.3
2017-08-14T05:18:20.787Z,86.1
2017-08-14T05:19:22.188Z,86.3
2017-08-14T05:20:23.594Z,86.0
2017-08-14T05:21:24.997Z,86.4
2017-08-14T05:22:26.395Z,86.3
2017-08-14T05:23:27.794Z,86.2
2017-08-14T05:24:29.199Z,86.4
2017-08-14T05:25:30.604Z,86.7
2017-08-14T05:26:32.005Z,86.8
2017-08-14T05:27:33.406Z,85.9
2017-08-14T05:28:34.810Z,86.5
2017-08-14T05:29:36.221Z,86.1
2017-08-14T05:30:37.619Z,86.3
2017-08-14T05:31:39.016Z,87.0
2017-08-14T05:32:40.418Z,86.7
2017-08-14T05:33:41.823Z,86.9
2017-08-14T05:34:43.226Z,86.8
2017-08-14T05:35:44.625Z,87.0
2017-08-14T05:36:46.029Z,86.3
2017-08-14T05:37:47.430Z,86.9
2017-08-14T05:38:48.828Z,86.9
2017-08-14T05:39:50.234Z,86.8
2017-08-14T05:40:51.638Z,87.0
2017-08-14T05:41:53.041Z,86.7
2017-08-14T05:42:54.448Z,86.4
2017-08-14T05:43:55.848Z,87.2
2017-08-14T05:44:57.251Z,87.3
2017-08-14T05:45:58.652Z,87.0
2017-08-14T05:47:00.053Z,87.6
2017-08-14T05:48:01.456Z,87.6
2017-08-14T05:49:02.862Z,87.4
2017-08-14T05:50:04.293Z,87.6
2017-08-14T05:51:05.722Z,87.8
2017-08-14T05:52:07.102Z,87.6
2017-08-14T05:53:08.509Z,87.8
2017-08-14T05:54:09.914Z,87.7
2017-08-14T05:55:11.317Z,87.5
2017-08-14T05:56:12.717Z,87.3
2017-08-14T05:57:14.123Z,87.6
2017-08-14T05:58:15.524Z,87.7
2017-08-14T05:59:16.923Z,87.3
2017-08-14T06:00:18.328Z,87.4
2017-08-14T06:01:19.729Z,87.7
2017-08-14T06:02:21.136Z,87.3
2017-08-14T06:03:22.532Z,86.8
2017-08-14T06:04:23.936Z,86.8
2017-08-14T06:05:25.345Z,86.4
2017-08-14T06:06:26.745Z,86.1
2017-08-14T06:07:28.148Z,87.2
2017-08-14T06:08:29.550Z,86.0
2017-08-14T06:09:30.960Z,85.7
2017-08-14T06:10:32.364Z,85.7
2017-08-14T06:11:33.961Z,85.3
2017-08-14T06:12:35.364Z,84.9
2017-08-14T06:13:36.796Z,84.3
2017-08-14T06:14:38.193Z,83.8
2017-08-14T06:15:39.614Z,83.1
2017-08-14T06:16:41.014Z,83.0
2017-08-14T06:17:42.421Z,83.0
2017-08-14T06:18:43.829Z,83.4
2017-08-14T06:19:45.227Z,82.3
2017-08-14T06:20:46.627Z,82.3
2017-08-14T06:21:48.027Z,82.2
2017-08-14T06:22:49.434Z,81.4
2017-08-14T06:23:50.840Z,81.4
2017-08-14T06:24:52.245Z,81.1
2017-08-14T06:25:53.646Z,80.7
2017-08-14T06:26:55.051Z,80.3
2017-08-14T06:27:56.451Z,80.3
2017-08-14T06:28:57.853Z,79.7
2017-08-14T06:29:59.258Z,79.8
2017-08-14T06:31:00.663Z,79.7
2017-08-14T06:32:02.069Z,79.5
2017-08-14T06:33:03.478Z,80.3
2017-08-14T06:34:04.879Z,80.1
2017-08-14T06:35:06.285Z,80.3
2017-08-14T06:36:07.688Z,79.9
2017-08-14T06:37:09.091Z,80.6
2017-08-14T06:38:10.517Z,80.3
2017-08-14T06:39:11.903Z,80.3
2017-08-14T06:40:13.308Z,79.1
2017-08-14T06:41:14.710Z,79.4
2017-08-14T06:42:16.940Z,79.1
2017-08-14T06:43:18.306Z,79.4
2017-08-14T06:44:19.710Z,79.5
2017-08-14T06:45:21.114Z,79.4
2017-08-14T06:46:22.518Z,78.7
2017-08-14T06:47:23.918Z,78.9
2017-08-14T06:48:25.321Z,79.8
2017-08-14T06:49:26.722Z,79.7
2017-08-14T06:50:28.123Z,79.2
2017-08-14T06:51:29.524Z,79.5
2017-08-14T06:52:30.929Z,79.8
2017-08-14T06:53:32.330Z,79.6
2017-08-14T06:54:33.734Z,79.4
2017-08-14T06:55:35.130Z,79.5
2017-08-14T06:56:36.530Z,78.8
2017-08-14T06:57:37.931Z,79.0
2017-08-14T06:58:39.338Z,79.3
2017-08-14T06:59:40.740Z,78.2
2017-08-14T07:00:42.143Z,78.7
2017-08-14T07:01:43.543Z,79.1
2017-08-14T07:02:44.946Z,78.6
2017-08-14T07:03:46.352Z,78.5
2017-08-14T07:04:47.757Z,78.7
2017-08-14T07:05:49.162Z,79.1
2017-08-14T07:06:50.565Z,79.2
2017-08-14T07:07:51.972Z,78.6
2017-08-14T07:08:53.376Z,78.7
2017-08-14T07:09:54.789Z,78.3
2017-08-14T07:10:56.186Z,77.8
2017-08-14T07:11:57.588Z,78.0
2017-08-14T07:12:58.990Z,78.3
2017-08-14T07:14:00.398Z,78.2
2017-08-14T07:15:01.803Z,77.8
2017-08-14T07:16:03.212Z,78.2
2017-08-14T07:17:05.348Z,77.8
2017-08-14T07:18:06.748Z,79.2
2017-08-14T07:19:08.154Z,78.5
2017-08-14T07:20:09.562Z,78.1
2017-08-14T07:21:11.541Z,77.2
2017-08-14T07:22:12.949Z,77.6
2017-08-14T07:23:14.390Z,76.6
2017-08-14T07:24:15.793Z,76.6
2017-08-14T07:25:17.195Z,75.9
2017-08-14T07:26:18.608Z,76.2
2017-08-14T07:27:20.014Z,76.5
2017-08-14T07:28:21.435Z,75.5
2017-08-14T07:29:22.843Z,74.8
2017-08-14T07:30:24.247Z,75.2
2017-08-14T07:31:25.655Z,76.2
2017-08-14T07:32:27.052Z,75.7
2017-08-14T07:33:29.429Z,75.9
2017-08-14T07:34:30.829Z,75.3
2017-08-14T07:35:32.237Z,75.1
2017-08-14T07:36:33.643Z,74.4
2017-08-14T07:37:35.053Z,74.6
2017-08-14T07:38:36.459Z,74.3
2017-08-14T07:39:37.860Z,74.4
2017-08-14T07:40:39.264Z,74.4
2017-08-14T07:41:40.669Z,74.5
2017-08-14T07:42:42.069Z,74.5
2017-08-14T07:43:43.477Z,74.5
2017-08-14T07:44:44.885Z,74.0
2017-08-14T07:45:46.288Z,73.4
2017-08-14T07:46:47.691Z,72.6
2017-08-14T07:47:49.095Z,72.0
2017-08-14T07:48:50.500Z,72.0
2017-08-14T07:49:51.909Z,72.0
2017-08-14T07:50:53.312Z,71.7
2017-08-14T07:51:54.718Z,71.9
2017-08-14T07:52:56.122Z,72.0
2017-08-14T07:53:57.522Z,72.2
2017-08-14T07:54:58.928Z,71.4
2017-08-14T07:56:00.330Z,71.4
2017-08-14T07:57:01.735Z,71.4
2017-08-14T07:58:03.141Z,70.9
2017-08-14T07:59:04.563Z,71.0
2017-08-14T08:00:05.970Z,70.9
2017-08-14T08:01:07.373Z,70.7
2017-08-14T08:02:08.777Z,70.7
2017-08-14T08:03:10.180Z,70.9
2017-08-14T08:04:11.584Z,71.0
2017-08-14T08:05:12.993Z,70.3
2017-08-14T08:06:14.397Z,70.0
2017-08-14T08:07:15.805Z,69.7
2017-08-14T08:08:17.206Z,68.9
2017-08-14T08:09:18.609Z,69.7
2017-08-14T08:10:20.014Z,69.7
2017-08-14T08:11:21.432Z,69.0
2017-08-14T08:12:22.831Z,68.1
2017-08-14T08:13:24.243Z,68.6
2017-08-14T08:14:25.645Z,68.5
2017-08-14T08:15:27.046Z,68.5
2017-08-14T08:16:28.446Z,68.5
2017-08-14T08:17:29.851Z,67.4
2017-08-14T08:18:31.255Z,67.0
2017-08-14T08:19:32.666Z,67.6
2017-08-14T08:20:34.075Z,66.8
2017-08-14T08:21:35.478Z,67.6
2017-08-14T08:22:36.881Z,66.8
2017-08-14T08:23:38.286Z,66.7
2017-08-14T08:24:39.689Z,66.7
2017-08-14T08:25:41.096Z,65.6
2017-08-14T08:26:42.499Z,65.5
2017-08-14T08:27:43.907Z,66.1
2017-08-14T08:28:45.312Z,65.7
2017-08-14T08:29:46.716Z,66.3
2017-08-14T08:30:48.122Z,65.4
2017-08-14T08:31:49.527Z,65.2
2017-08-14T08:32:50.933Z,65.1
2017-08-14T08:33:52.340Z,65.3
2017-08-14T08:34:53.750Z,64.4
2017-08-14T08:35:55.151Z,63.4
2017-08-14T08:36:56.553Z,62.8
2017-08-14T08:37:57.959Z,63.5
2017-08-14T08:38:59.368Z,64.6
2017-08-14T08:40:00.773Z,65.0
2017-08-14T08:41:02.177Z,63.6
2017-08-14T08:42:03.583Z,64.2
2017-08-14T08:43:04.984Z,64.6
2017-08-14T08:44:06.393Z,63.5
2017-08-14T08:45:07.838Z,63.7
2017-08-14T08:46:09.240Z,63.1
2017-08-14T08:47:10.645Z,62.3
2017-08-14T08:48:12.059Z,62.8
2017-08-14T08:49:13.464Z,62.4
2017-08-14T08:50:14.871Z,62.0
2017-08-14T08:51:16.276Z,62.0
2017-08-14T08:52:17.709Z,61.6
2017-08-14T08:53:19.117Z,62.1
2017-08-14T08:54:20.517Z,62.3
2017-08-14T08:55:21.929Z,62.2
2017-08-14T08:56:23.382Z,62.0
2017-08-14T08:57:24.789Z,61.3
2017-08-14T08:58:26.193Z,61.8
2017-08-14T08:59:27.596Z,61.6
2017-08-14T09:00:29.002Z,61.3
2017-08-14T09:01:30.411Z,61.2
2017-08-14T09:02:31.877Z,60.9
2017-08-14T09:03:33.283Z,60.6
2017-08-14T09:04:34.690Z,60.7
2017-08-14T09:05:36.094Z,59.8
2017-08-14T09:06:37.512Z,59.5
2017-08-14T09:07:38.919Z,59.6
2017-08-14T09:08:40.503Z,60.7
2017-08-14T09:09:41.910Z,60.5
2017-08-14T09:10:43.318Z,59.5
2017-08-14T09:11:44.724Z,59.4
2017-08-14T09:12:46.132Z,59.1
2017-08-14T09:13:47.537Z,58.4
2017-08-14T09:14:48.945Z,58.9
2017-08-14T09:15:50.387Z,57.5
2017-08-14T09:16:51.792Z,58.1
2017-08-14T09:17:53.198Z,57.1
2017-08-14T09:18:54.605Z,56.7
2017-08-14T09:19:56.007Z,56.2
2017-08-14T09:20:57.415Z,56.2
2017-08-14T09:21:58.825Z,57.3
2017-08-14T09:23:00.231Z,57.5
2017-08-14T09:24:01.643Z,56.2
2017-08-14T09:25:03.051Z,57.8
2017-08-14T09:26:04.598Z,57.5
2017-08-14T09:27:06.009Z,56.6
2017-08-14T09:28:07.533Z,56.2
2017-08-14T09:29:08.935Z,56.5
2017-08-14T09:30:10.344Z,56.5
2017-08-14T09:31:11.750Z,55.4
2017-08-14T09:32:13.160Z,54.5
2017-08-14T09:33:14.563Z,53.6
2017-08-14T09:34:16.024Z,53.5
2017-08-14T09:35:17.428Z,53.9
2017-08-14T09:36:18.836Z,53.2
2017-08-14T09:37:20.239Z,52.7
2017-08-14T09:38:21.649Z,52.9
2017-08-14T09:39:23.058Z,53.1
2017-08-14T09:40:24.462Z,52.7
2017-08-14T09:41:25.865Z,51.6
2017-08-14T09:42:27.271Z,50.8
2017-08-14T09:43:28.681Z,51.2
2017-08-14T09:44:30.084Z,51.5
2017-08-14T09:45:31.493Z,52.6
2017-08-14T09:46:32.899Z,53.5
2017-08-14T09:47:34.304Z,53.8
2017-08-14T09:48:35.715Z,54.9
2017-08-14T09:49:37.123Z,53.2
2017-08-14T09:50:38.526Z,52.5
2017-08-14T09:51:39.932Z,52.0
2017-08-14T09:52:41.365Z,51.7
2017-08-14T09:53:42.776Z,51.2
2017-08-14T09:54:44.178Z,51.3
2017-08-14T09:55:45.584Z,51.4
2017-08-14T09:56:46.990Z,50.0
2017-08-14T09:57:48.974Z,51.6
2017-08-14T09:58:50.363Z,50.4
2017-08-14T09:59:51.770Z,49.7
2017-08-14T10:00:53.178Z,49.4
2017-08-14T10:01:54.582Z,49.5
2017-08-14T10:02:55.984Z,50.5
2017-08-14T10:03:57.398Z,50.9
2017-08-14T10:04:58.803Z,49.3
2017-08-14T10:06:00.212Z,49.5
2017-08-14T10:07:01.621Z,50.4
2017-08-14T10:08:03.035Z,50.2
2017-08-14T10:09:04.444Z,50.4
2017-08-14T10:10:05.956Z,49.4
2017-08-14T10:11:07.368Z,49.8
2017-08-14T10:12:08.777Z,50.4
2017-08-14T10:13:10.186Z,48.8
2017-08-14T10:14:12.328Z,49.3
2017-08-14T10:15:13.737Z,48.7
2017-08-14T10:16:15.145Z,49.2
2017-08-14T10:17:16.680Z,49.0
2017-08-14T10:18:18.066Z,47.8
2017-08-14T10:19:19.471Z,47.5
2017-08-14T10:20:20.880Z,47.8
2017-08-14T10:21:22.289Z,47.9
2017-08-14T10:22:23.703Z,47.4
2017-08-14T10:23:25.111Z,47.8
2017-08-14T10:24:26.524Z,48.2
2017-08-14T10:25:27.933Z,47.1
2017-08-14T10:26:29.345Z,46.2
2017-08-14T10:27:30.820Z,46.3
2017-08-14T10:28:32.230Z,46.4
2017-08-14T10:29:33.645Z,45.3
2017-08-14T10:30:35.058Z,45.2
2017-08-14T10:31:36.466Z,45.3
2017-08-14T10:32:37.874Z,44.7
2017-08-14T10:33:39.284Z,45.3
2017-08-14T10:34:40.694Z,46.1
2017-08-14T10:35:42.105Z,45.7
2017-08-14T10:36:43.517Z,45.1
2017-08-14T10:37:44.926Z,45.0
2017-08-14T10:38:46.334Z,45.7
2017-08-14T10:39:47.777Z,44.6
2017-08-14T10:40:49.182Z,42.0
2017-08-14T10:41:50.592Z,42.2
2017-08-14T10:42:52.005Z,43.3
2017-08-14T10:43:53.414Z,42.5
2017-08-14T10:44:54.825Z,41.5
2017-08-14T10:45:56.235Z,40.6
2017-08-14T10:46:57.645Z,39.5
2017-08-14T10:47:59.089Z,40.4
2017-08-14T10:49:00.501Z,40.4
2017-08-14T10:50:01.912Z,40.0
2017-08-14T10:51:03.382Z,39.7
2017-08-14T10:52:04.874Z,40.4
2017-08-14T10:53:06.343Z,39.0
2017-08-14T10:54:07.733Z,38.7
2017-08-14T10:55:09.178Z,38.7
2017-08-14T10:56:10.590Z,38.0
2017-08-14T10:57:12.062Z,37.3
2017-08-14T10:58:13.482Z,38.1
2017-08-14T10:59:14.894Z,38.0
2017-08-14T11:00:16.333Z,37.5
2017-08-14T11:01:17.753Z,36.9
2017-08-14T11:02:19.169Z,37.0
2017-08-14T11:03:20.585Z,36.5
2017-08-14T11:04:22.005Z,36.4
2017-08-14T11:05:23.420Z,35.2
2017-08-14T11:06:24.833Z,36.5
2017-08-14T11:07:26.279Z,36.1
2017-08-14T11:08:27.697Z,35.8
2017-08-14T11:09:29.113Z,35.4
2017-08-14T11:10:30.538Z,35.2
2017-08-14T11:11:31.948Z,34.4
2017-08-14T11:12:33.369Z,34.3
2017-08-14T11:13:34.872Z,33.6
2017-08-14T11:14:36.256Z,33.5
2017-08-14T11:15:37.681Z,33.2
2017-08-14T11:16:39.097Z,34.0
2017-08-14T11:17:40.515Z,34.2
2017-08-14T11:18:41.936Z,34.4
2017-08-14T11:19:43.366Z,34.3
2017-08-14T11:20:44.781Z,34.3
2017-08-14T11:21:46.199Z,34.1
2017-08-14T11:22:47.617Z,32.4
2017-08-14T11:23:49.031Z,33.6
2017-08-14T11:24:50.447Z,33.6
2017-08-14T11:25:51.867Z,32.0
2017-08-14T11:26:53.313Z,32.2
2017-08-14T11:27:54.727Z,32.6
2017-08-14T11:28:56.231Z,32.5
2017-08-14T11:29:57.645Z,32.6
2017-08-14T11:30:59.105Z,33.4
2017-08-14T11:32:00.528Z,31.2
2017-08-14T11:33:02.177Z,31.2
2017-08-14T11:34:03.593Z,31.8
2017-08-14T11:35:05.032Z,32.2
2017-08-14T11:36:06.471Z,31.5
2017-08-14T11:37:07.889Z,30.8
2017-08-14T11:38:09.299Z,30.7
2017-08-14T11:39:10.823Z,30.7
2017-08-14T11:40:12.246Z,30.7
2017-08-14T11:41:13.669Z,31.4
2017-08-14T11:42:15.121Z,31.9
2017-08-14T11:43:16.556Z,32.7
2017-08-14T11:44:17.994Z,32.9
2017-08-14T11:45:19.431Z,33.2
2017-08-14T11:46:20.859Z,31.8
2017-08-14T11:47:22.283Z,32.2
2017-08-14T11:48:23.704Z,32.0
2017-08-14T11:49:25.115Z,32.8
2017-08-14T11:50:26.527Z,32.4
2017-08-14T11:51:27.944Z,32.3
2017-08-14T11:52:29.358Z,32.0
2017-08-14T11:53:30.773Z,32.0
2017-08-14T11:54:32.189Z,30.7
2017-08-14T11:55:33.604Z,31.1
2017-08-14T11:56:35.019Z,32.2
2017-08-14T11:57:36.429Z,33.2
2017-08-14T11:58:37.841Z,33.3
2017-08-14T11:59:39.258Z,33.8
2017-08-14T12:00:40.672Z,34.2
2017-08-14T12:01:42.086Z,34.1
2017-08-14T12:02:43.497Z,34.8
2017-08-14T12:03:44.913Z,35.2
2017-08-14T12:04:46.324Z,35.4
2017-08-14T12:05:47.733Z,36.3
2017-08-14T12:06:49.146Z,36.5
2017-08-14T12:07:50.559Z,36.3
2017-08-14T12:08:51.975Z,36.9
2017-08-14T12:09:53.389Z,36.5
2017-08-14T12:10:54.802Z,35.6
2017-08-14T12:11:56.211Z,35.3
2017-08-14T12:12:57.625Z,35.8
2017-08-14T12:13:59.036Z,35.2
2017-08-14T12:15:00.449Z,35.5
2017-08-14T12:16:01.862Z,35.6
2017-08-14T12:17:03.277Z,35.8
2017-08-14T12:18:04.688Z,35.9
2017-08-14T12:19:06.101Z,35.9
2017-08-14T12:20:07.515Z,35.4
2017-08-14T12:21:08.926Z,35.4
2017-08-14T12:22:10.339Z,35.6
2017-08-14T12:23:11.760Z,35.2
2017-08-14T12:24:13.176Z,34.3
2017-08-14T12:25:14.591Z,34.3
2017-08-14T12:26:16.004Z,34.2
2017-08-14T12:27:17.417Z,33.3
2017-08-14T12:28:18.835Z,34.0
2017-08-14T12:29:20.243Z,33.3
2017-08-14T12:30:21.657Z,33.2
2017-08-14T12:31:23.072Z,32.2
2017-08-14T12:32:24.482Z,32.2
2017-08-14T12:33:25.896Z,30.8
2017-08-14T12:34:27.378Z,30.8
2017-08-14T12:35:28.792Z,31.9
2017-08-14T12:36:30.209Z,32.3
2017-08-14T12:37:31.622Z,33.0
2017-08-14T12:38:33.038Z,30.6
2017-08-14T12:39:34.454Z,31.2
2017-08-14T12:40:35.868Z,32.0
2017-08-14T12:41:37.278Z,32.9
2017-08-14T12:42:38.687Z,32.3
2017-08-14T12:43:40.104Z,32.2
2017-08-14T12:44:41.519Z,33.6
2017-08-14T12:45:42.958Z,33.4
2017-08-14T12:46:44.365Z,34.3
2017-08-14T12:47:45.773Z,34.1
2017-08-14T12:48:47.187Z,34.2
2017-08-14T12:49:48.609Z,33.9
2017-08-14T12:50:50.018Z,34.3
2017-08-14T12:51:51.435Z,34.0
2017-08-14T12:52:52.933Z,33.0
2017-08-14T12:53:54.352Z,33.2
2017-08-14T12:54:55.764Z,32.4
2017-08-14T12:55:57.176Z,30.8
2017-08-14T12:56:58.588Z,31.3
2017-08-14T12:58:00.650Z,30.7
2017-08-14T12:59:02.063Z,31.9
2017-08-14T13:00:03.476Z,32.5
2017-08-14T13:01:04.887Z,33.2
2017-08-14T13:02:06.301Z,33.2
2017-08-14T13:03:07.717Z,33.3
2017-08-14T13:04:09.131Z,33.2
2017-08-14T13:05:10.549Z,34.0
2017-08-14T13:06:11.958Z,34.2
2017-08-14T13:07:13.375Z,34.0
2017-08-14T13:08:14.802Z,34.4
2017-08-14T13:09:16.212Z,34.3
2017-08-14T13:10:17.612Z,34.1
2017-08-14T13:11:19.041Z,35.0
2017-08-14T13:12:20.449Z,35.4
2017-08-14T13:13:21.862Z,35.6
2017-08-14T13:14:23.278Z,33.9
2017-08-14T13:15:24.690Z,33.3
2017-08-14T13:16:26.150Z,33.6
2017-08-14T13:17:27.565Z,33.3
2017-08-14T13:18:28.978Z,32.6
2017-08-14T13:19:30.433Z,32.6
2017-08-14T13:20:31.848Z,33.0
2017-08-14T13:21:33.263Z,31.1
2017-08-14T13:22:34.673Z,31.0
2017-08-14T13:23:36.092Z,30.7
2017-08-14T13:24:37.505Z,29.3
2017-08-14T13:25:39.276Z,29.9
2017-08-14T13:26:40.819Z,30.7
2017-08-14T13:27:42.236Z,31.8
2017-08-14T13:28:43.665Z,32.7
2017-08-14T13:29:45.318Z,33.4
2017-08-14T13:30:46.719Z,33.6
2017-08-14T13:31:48.131Z,34.1
2017-08-14T13:32:49.541Z,33.3
2017-08-14T13:33:50.957Z,33.0
2017-08-14T13:34:52.373Z,33.6
2017-08-14T13:35:53.786Z,33.2
2017-08-14T13:36:55.194Z,32.3